Overview Statistics Trail Chart Weather Telemetry Raw packets
 

This is the latest recevied weather packets stored in our database for station/object ED4YAF-13. If no packets are shown the sender has not sent any weather packets the latest 10 day(s).

<< 4 5 6 7 8 9 10 >>
Time Temp. Humidity Pressure Rain* Wind** Luminosity Snow
1788478964 21.67° C 23% 1020.9 hPa - - - -
1788478064 21.67° C 23% 1020.9 hPa - - - -
1788477164 21.11° C 23% 1021.2 hPa - - - -
1788476262 21.11° C 23% 1021.2 hPa - - - -
1788475355 21.67° C 22% 1020.5 hPa - - - -
1788474443 21.67° C 22% 1020.3 hPa - - - -
1788473543 22.22° C 22% 1020.3 hPa - - - -
1788472634 22.22° C 21% 1020.2 hPa - - - -
1788471734 22.22° C 22% 1020.3 hPa - - - -
1788470834 21.67° C 23% 1020.4 hPa - - - -
1788469934 22.22° C 22% 1020.4 hPa - - - -
1788469034 22.22° C 23% 1020.2 hPa - - - -
1788468134 22.22° C 23% 1020.1 hPa - - - -
1788467234 22.22° C 24% 1020 hPa - - - -
1788466336 22.22° C 23% 1020 hPa - - - -
1788465422 22.22° C 23% 1019.8 hPa - - - -
1788464522 22.78° C 23% 1019.5 hPa - - - -
1788463621 22.78° C 24% 1019.3 hPa - - - -
1788462726 22.78° C 23% 1018.9 hPa - - - -
1788461824 23.33° C 23% 1018.8 hPa - - - -
1788460143 23.89° C 20% 1018.2 hPa - - - -
1788459250 25° C 20% 1017.7 hPa - - - -
1788458350 25.56° C 20% 1017.1 hPa - - - -
1788457450 26.11° C 20% 1017 hPa - - - -
1788453832 27.78° C 20% 1015.5 hPa - - - -

* Rain since midnight (hover to see other rain measurements)
** Current wind speed in m/s (hover to see current wind gust speed)